Time;durP1;ratioP1;P1;durP2;ratioP2;P2;SDS_P1;SDS_P2;PMS_P1;PMS_P2;Temp;Humidity;BMP_temperature;BMP_pressure;BME280_temperature;BME280_humidity;BME280_pressure;Samples;Min_cycle;Max_cycle;Signal;HPM_P1;HPM_P2
2023/07/04 00:01:12;;;;;;;10.70;7.70;;;;;;;21.62;48.40;100403.71;105720;1251;60500;-57
2023/07/04 00:03:41;;;;;;;12.00;7.30;;;;;;;21.58;48.36;100405.05;105451;1253;63623;-59
2023/07/04 00:06:10;;;;;;;13.10;7.50;;;;;;;21.56;48.83;100405.07;105588;1251;62169;-58
2023/07/04 00:08:38;;;;;;;15.30;7.70;;;;;;;21.52;49.41;100407.27;105778;1253;62456;-62
2023/07/04 00:11:06;;;;;;;10.00;6.90;;;;;;;21.49;49.80;100410.70;105829;1253;60445;-59
2023/07/04 00:13:35;;;;;;;10.80;7.20;;;;;;;21.46;50.42;100412.52;105708;1251;60572;-59
2023/07/04 00:16:05;;;;;;;12.40;7.90;;;;;;;21.42;50.71;100412.51;105438;1251;64948;-58
2023/07/04 00:18:34;;;;;;;11.00;7.30;;;;;;;21.35;50.75;100412.54;105711;1257;61368;-60
2023/07/04 00:21:07;;;;;;;10.90;7.60;;;;;;;21.28;51.11;100410.38;105994;1251;62490;-59
2023/07/04 00:23:35;;;;;;;12.30;7.50;;;;;;;21.21;51.39;100412.23;105658;1253;60563;-59
2023/07/04 00:26:04;;;;;;;12.40;7.50;;;;;;;21.19;51.33;100415.18;105384;1252;60504;-58
2023/07/04 00:28:33;;;;;;;10.30;7.90;;;;;;;21.18;51.41;100412.98;105617;1251;65132;-62
2023/07/04 00:31:02;;;;;;;12.60;8.30;;;;;;;21.15;51.60;100413.38;105867;1253;62091;-59
2023/07/04 00:33:30;;;;;;;15.10;8.00;;;;;;;21.10;51.74;100412.52;105387;1256;63793;-59
2023/07/04 00:36:09;;;;;;;12.10;7.70;;;;;;;21.05;52.09;100415.84;105396;1256;60456;-59
2023/07/04 00:38:38;;;;;;;10.50;7.60;;;;;;;21.00;52.44;100421.39;105904;1253;60422;-60
2023/07/04 00:41:11;;;;;;;11.50;7.70;;;;;;;20.94;52.66;100423.73;105611;1258;63656;-59
2023/07/04 00:44:13;;;;;;;11.40;7.20;;;;;;;20.89;52.20;100425.76;105841;1251;61495;-59
2023/07/04 00:47:06;;;;;;;12.00;8.00;;;;;;;20.80;52.00;100421.95;105578;1254;63914;-59
2023/07/04 00:49:42;;;;;;;14.20;7.70;;;;;;;20.71;52.04;100425.52;105843;1257;60588;-60
2023/07/04 00:52:24;;;;;;;11.10;7.50;;;;;;;20.61;51.77;100423.87;105356;1255;60347;-60
2023/07/04 00:54:53;;;;;;;11.90;7.50;;;;;;;20.51;51.87;100427.15;105441;1256;64945;-60
2023/07/04 00:57:23;;;;;;;11.30;8.10;;;;;;;20.39;51.22;100430.59;105404;1251;64098;-60
2023/07/04 00:59:58;;;;;;;11.80;8.30;;;;;;;20.25;50.73;100433.15;108023;1253;63752;-60
2023/07/04 01:02:29;;;;;;;14.20;8.50;;;;;;;20.15;50.78;100430.48;105626;1252;60447;-59
2023/07/04 01:04:57;;;;;;;11.60;7.50;;;;;;;20.08;50.86;100433.61;105375;1257;60428;-61
2023/07/04 01:07:49;;;;;;;15.30;7.70;;;;;;;20.03;51.10;100437.90;105552;1251;64933;-59
2023/07/04 01:10:35;;;;;;;11.70;7.80;;;;;;;20.02;51.52;100434.97;105460;1251;60488;-59
2023/07/04 01:13:03;;;;;;;;;;;;;;;20.04;51.81;100432.85;105500;1251;62507;-60
2023/07/04 01:15:31;;;;;;;11.90;7.30;;;;;;;20.04;52.14;100435.90;105522;1251;61721;-58
2023/07/04 01:17:58;;;;;;;12.10;8.00;;;;;;;20.03;52.14;100439.55;105682;1253;60521;-58
2023/07/04 01:20:26;;;;;;;12.60;8.30;;;;;;;20.03;52.13;100443.33;105255;1254;66090;-58
2023/07/04 01:23:35;;;;;;;10.50;7.10;;;;;;;20.06;52.04;100443.33;105065;1254;61791;-59
2023/07/04 01:26:31;;;;;;;10.90;7.70;;;;;;;20.08;52.31;100444.70;104992;1257;62466;-60
2023/07/04 01:28:59;;;;;;;12.30;8.00;;;;;;;20.08;53.35;100446.40;105420;1253;60556;-59
2023/07/04 01:31:30;;;;;;;11.50;7.50;;;;;;;20.12;53.55;100447.40;105450;1250;60586;-59
2023/07/04 01:33:57;;;;;;;9.90;7.50;;;;;;;20.16;53.35;100448.19;105479;1250;63606;-59
2023/07/04 01:36:30;;;;;;;15.60;7.40;;;;;;;20.16;53.07;100452.27;105717;1251;61348;-60
2023/07/04 01:38:57;;;;;;;13.10;7.60;;;;;;;20.14;53.00;100450.34;105591;1253;64231;-60
2023/07/04 01:41:25;;;;;;;10.10;7.10;;;;;;;20.15;52.76;100452.90;105366;1253;60537;-60
2023/07/04 01:44:04;;;;;;;10.00;6.90;;;;;;;20.15;52.66;100456.48;105565;1250;60420;-60
2023/07/04 01:46:32;;;;;;;11.00;7.20;;;;;;;20.13;52.90;100457.19;106466;1251;63655;-60
2023/07/04 01:49:00;;;;;;;13.10;8.10;;;;;;;20.12;53.06;100459.10;105959;1257;60415;-60
2023/07/04 01:51:28;;;;;;;11.50;8.20;;;;;;;20.11;53.33;100467.14;105637;1258;63808;-60
2023/07/04 01:53:56;;;;;;;12.40;7.40;;;;;;;20.08;53.73;100476.52;105721;1254;60533;-60
2023/07/04 01:56:24;;;;;;;12.70;7.60;;;;;;;20.07;54.00;100480.91;105526;1250;60566;-60
2023/07/04 01:58:52;;;;;;;11.30;7.80;;;;;;;20.03;54.51;100478.63;105500;1250;63793;-59
2023/07/04 02:01:21;;;;;;;12.00;7.90;;;;;;;20.00;54.81;100478.75;105779;1250;60549;-60
2023/07/04 02:03:49;;;;;;;10.80;7.30;;;;;;;19.98;54.88;100484.30;105440;1253;63950;-59
2023/07/04 02:06:16;;;;;;;9.80;7.00;;;;;;;19.99;54.77;100487.77;105842;1250;60475;-59
2023/07/04 02:08:44;;;;;;;10.80;7.10;;;;;;;19.98;54.90;100485.86;105785;1251;60553;-59
2023/07/04 02:11:12;;;;;;;10.70;8.20;;;;;;;19.97;55.38;100490.35;105546;1251;63704;-59
2023/07/04 02:13:40;;;;;;;12.00;8.50;;;;;;;19.93;55.10;100493.75;106153;1251;61318;-59
2023/07/04 02:16:08;;;;;;;12.30;8.50;;;;;;;19.91;55.03;100495.64;105689;1251;63753;-59
2023/07/04 02:18:36;;;;;;;12.30;9.00;;;;;;;19.90;55.23;100497.52;105409;1253;60617;-58
2023/07/04 02:21:03;;;;;;;12.30;9.00;;;;;;;19.91;54.83;100499.88;105564;1251;60532;-60
2023/07/04 02:23:31;;;;;;;11.60;9.10;;;;;;;19.89;54.42;100503.47;105693;1251;65011;-62
2023/07/04 02:25:58;;;;;;;14.20;9.40;;;;;;;19.87;54.19;100506.03;105443;1250;73881;-58
2023/07/04 02:28:26;;;;;;;14.10;8.70;;;;;;;19.85;54.62;100505.38;105611;1253;63871;-60
2023/07/04 02:30:55;;;;;;;12.80;8.60;;;;;;;19.86;55.17;100504.41;105694;1256;60552;-60
2023/07/04 02:33:23;;;;;;;11.40;8.20;;;;;;;19.90;54.74;100498.06;105500;1257;60503;-60
2023/07/04 02:35:51;;;;;;;10.20;8.40;;;;;;;19.96;54.39;100495.04;105476;1251;64995;-60
2023/07/04 02:38:19;;;;;;;12.90;9.20;;;;;;;20.00;54.32;100497.02;105660;1257;60450;-60
2023/07/04 02:40:47;;;;;;;10.50;8.00;;;;;;;20.03;54.57;100499.87;105033;1253;63851;-61
2023/07/04 02:43:15;;;;;;;13.30;8.10;;;;;;;20.04;55.20;100500.10;105739;1253;60560;-61
2023/07/04 02:45:43;;;;;;;13.10;8.80;;;;;;;20.03;55.13;100501.84;105687;1256;60441;-61
2023/07/04 02:48:13;;;;;;;12.60;8.20;;;;;;;20.02;55.05;100496.98;105494;1251;65642;-59
2023/07/04 02:50:41;;;;;;;17.90;9.20;;;;;;;20.02;55.12;100499.98;106980;1251;61853;-59
2023/07/04 02:53:09;;;;;;;12.30;9.50;;;;;;;19.99;55.29;100495.54;105388;1254;63811;-60
2023/07/04 02:55:37;;;;;;;13.50;8.00;;;;;;;19.98;55.47;100495.88;105605;1253;60569;-59
2023/07/04 02:58:05;;;;;;;11.30;8.40;;;;;;;19.97;55.34;100498.70;105441;1253;60656;-59
2023/07/04 03:00:34;;;;;;;13.40;8.50;;;;;;;19.95;55.24;100501.51;105529;1253;63692;-60
2023/07/04 03:03:02;;;;;;;14.20;8.40;;;;;;;20.00;55.26;100504.73;105423;1257;60450;-61
2023/07/04 03:05:30;;;;;;;12.90;8.90;;;;;;;20.08;55.54;100506.30;105537;1250;63774;-59
2023/07/04 03:07:58;;;;;;;13.60;9.20;;;;;;;20.12;55.69;100507.02;105560;1253;61747;-60
2023/07/04 03:23:59;;;;;;;14.30;10.10;;;;;;;20.33;55.47;100513.96;103241;1283;604912;-55
2023/07/04 03:26:28;;;;;;;15.00;11.40;;;;;;;20.91;53.87;100512.44;104260;1272;295894;-55
2023/07/04 03:28:56;;;;;;;17.60;11.30;;;;;;;20.94;53.47;100515.05;105320;1255;59238;-56
2023/07/04 03:31:24;;;;;;;15.50;11.80;;;;;;;20.96;53.20;100516.44;105379;1259;62017;-52
2023/07/04 03:33:52;;;;;;;17.50;11.30;;;;;;;20.98;53.01;100515.69;105717;1255;61357;-53
2023/07/04 03:36:19;;;;;;;14.90;10.80;;;;;;;20.98;52.97;100519.73;105250;1259;62441;-54
2023/07/04 03:38:47;;;;;;;19.70;10.70;;;;;;;20.99;53.01;100526.43;105702;1254;60048;-53
2023/07/04 03:41:14;;;;;;;13.70;10.50;;;;;;;20.98;53.07;100524.04;105392;1254;59260;-54
2023/07/04 03:43:42;;;;;;;15.80;10.50;;;;;;;20.98;53.25;100520.66;105277;1254;63549;-55
2023/07/04 03:46:09;;;;;;;14.00;10.70;;;;;;;20.97;53.28;100521.98;105311;1254;61343;-54
2023/07/04 03:48:37;;;;;;;13.40;9.60;;;;;;;20.99;53.57;100523.42;105334;1257;63208;-56
2023/07/04 03:51:05;;;;;;;14.00;9.70;;;;;;;21.04;53.26;100524.90;105307;1259;59737;-55
2023/07/04 03:53:37;;;;;;;13.90;10.20;;;;;;;21.11;53.15;100530.41;105363;1254;59562;-54
2023/07/04 03:56:05;;;;;;;13.10;9.60;;;;;;;21.18;53.09;100531.43;108003;1259;64078;-56
2023/07/04 03:58:32;;;;;;;16.50;10.30;;;;;;;21.23;53.22;100531.72;105365;1259;60127;-53
2023/07/04 04:01:00;;;;;;;12.20;8.80;;;;;;;21.27;53.10;100534.73;105313;1259;62451;-53
2023/07/04 04:03:28;;;;;;;15.10;9.90;;;;;;;21.32;52.75;100534.01;105226;1255;60459;-56
2023/07/04 04:05:55;;;;;;;12.80;9.10;;;;;;;21.36;52.25;100532.60;105462;1254;59690;-55
2023/07/04 04:08:23;;;;;;;13.20;8.60;;;;;;;21.38;51.70;100535.67;105086;1259;62836;-55
2023/07/04 04:10:51;;;;;;;13.90;9.70;;;;;;;21.42;51.82;100537.37;106445;1254;60220;-55
2023/07/04 04:13:19;;;;;;;13.10;8.80;;;;;;;21.45;52.02;100538.26;106904;1260;64269;-55
2023/07/04 04:15:46;;;;;;;12.60;8.40;;;;;;;21.48;52.01;100538.98;108156;1254;59214;-55
2023/07/04 04:18:14;;;;;;;14.00;10.10;;;;;;;21.52;51.95;100536.67;108967;1254;57510;-56
2023/07/04 04:20:41;;;;;;;12.80;9.60;;;;;;;21.57;51.74;100539.15;109024;1254;71867;-56
2023/07/04 04:23:09;;;;;;;12.70;9.60;;;;;;;21.61;51.45;100538.63;106619;1259;60287;-55
2023/07/04 04:25:39;;;;;;;15.00;8.40;;;;;;;21.67;51.41;100545.76;105050;1256;63724;-55
2023/07/04 04:28:08;;;;;;;14.70;8.50;;;;;;;21.73;51.30;100544.33;106214;1257;59634;-55
2023/07/04 04:30:36;;;;;;;12.20;8.90;;;;;;;21.78;51.15;100544.52;105923;1254;59765;-56
2023/07/04 04:33:04;;;;;;;14.30;9.40;;;;;;;21.83;50.82;100547.22;105272;1257;62814;-55
2023/07/04 04:35:31;;;;;;;13.60;9.60;;;;;;;21.87;50.59;100545.27;105370;1260;61456;-55
2023/07/04 04:37:59;;;;;;;13.20;9.10;;;;;;;21.92;50.18;100548.69;105204;1257;62517;-54
2023/07/04 04:40:28;;;;;;;10.70;8.30;;;;;;;21.96;49.71;100549.60;105237;1254;59676;-58
2023/07/04 04:42:56;;;;;;;15.70;9.90;;;;;;;22.01;49.97;100554.38;105533;1254;59651;-58
2023/07/04 04:45:24;;;;;;;14.50;10.60;;;;;;;22.05;49.68;100556.48;105645;1255;62980;-59
2023/07/04 04:47:54;;;;;;;11.90;8.80;;;;;;;22.10;49.20;100559.67;105225;1254;61326;-57
2023/07/04 04:50:23;;;;;;;12.20;9.30;;;;;;;22.14;48.96;100558.96;105219;1256;63801;-60
2023/07/04 04:52:51;;;;;;;12.80;9.10;;;;;;;22.18;48.75;100561.27;105271;1255;59729;-59
2023/07/04 04:55:19;;;;;;;14.90;8.30;;;;;;;22.23;48.62;100560.46;105091;1254;59676;-57
2023/07/04 04:57:53;;;;;;;11.50;8.10;;;;;;;22.29;48.80;100564.54;105594;1257;65185;-61
2023/07/04 05:00:21;;;;;;;11.50;8.60;;;;;;;22.37;48.86;100563.77;109008;1253;61369;-58
2023/07/04 05:02:48;;;;;;;11.20;8.30;;;;;;;22.45;48.83;100568.20;109010;1254;63677;-55
2023/07/04 05:05:16;;;;;;;9.50;8.00;;;;;;;22.55;48.61;100572.23;105870;1258;59586;-53
2023/07/04 05:07:44;;;;;;;11.30;8.70;;;;;;;22.63;48.77;100573.13;106551;1262;59676;-54
2023/07/04 05:10:11;;;;;;;11.50;8.00;;;;;;;22.72;50.62;100578.02;105297;1256;64322;-55
2023/07/04 05:12:39;;;;;;;11.90;8.30;;;;;;;22.81;51.57;100577.36;108724;1260;61871;-55
2023/07/04 05:15:07;;;;;;;11.10;9.00;;;;;;;22.93;51.63;100575.02;108904;1254;62509;-56
2023/07/04 05:17:35;;;;;;;11.20;8.70;;;;;;;23.06;51.46;100575.05;106282;1260;60982;-55
2023/07/04 05:20:05;;;;;;;10.60;7.70;;;;;;;23.17;51.52;100572.80;105600;1254;59766;-55
2023/07/04 05:22:33;;;;;;;10.80;8.20;;;;;;;23.26;51.69;100575.96;105208;1262;64013;-56
2023/07/04 05:25:00;;;;;;;12.40;8.20;;;;;;;23.34;50.97;100574.55;105141;1259;60354;-56
2023/07/04 05:27:28;;;;;;;12.50;8.70;;;;;;;23.40;50.59;100574.93;104879;1258;64327;-56
2023/07/04 05:29:55;;;;;;;10.90;8.30;;;;;;;23.45;50.55;100576.75;105509;1259;59352;-54
2023/07/04 05:32:23;;;;;;;12.80;7.30;;;;;;;23.51;49.96;100580.86;105041;1257;59678;-58
2023/07/04 05:34:51;;;;;;;13.70;7.60;;;;;;;23.56;49.18;100577.62;105085;1262;64248;-58
2023/07/04 05:37:18;;;;;;;13.30;7.90;;;;;;;23.62;48.49;100575.48;105209;1261;60130;-57
2023/07/04 05:39:46;;;;;;;10.80;7.50;;;;;;;23.67;47.71;100580.68;105111;1256;63683;-57
2023/07/04 05:42:13;;;;;;;10.10;7.00;;;;;;;23.70;46.84;100580.73;105053;1261;59765;-58
2023/07/04 05:44:41;;;;;;;10.80;7.70;;;;;;;23.73;46.79;100583.30;107228;1259;59674;-55
2023/07/04 05:47:09;;;;;;;14.60;8.10;;;;;;;23.77;47.34;100584.79;106035;1261;64094;-58
2023/07/04 05:49:36;;;;;;;10.10;7.20;;;;;;;23.81;48.15;100586.84;105120;1259;61362;-55
2023/07/04 05:52:05;;;;;;;10.60;7.10;;;;;;;23.87;47.70;100584.13;104950;1261;63681;-56
2023/07/04 05:54:33;;;;;;;11.80;7.40;;;;;;;23.90;47.12;100587.11;105614;1257;59732;-57
2023/07/04 05:57:00;;;;;;;12.90;6.90;;;;;;;23.94;46.81;100589.17;104981;1257;59783;-57
2023/07/04 05:59:29;;;;;;;10.20;6.60;;;;;;;23.99;46.67;100588.35;104731;1259;64041;-57
2023/07/04 06:01:58;;;;;;;10.60;6.20;;;;;;;24.04;45.95;100589.27;105099;1259;61373;-56
2023/07/04 06:04:26;;;;;;;8.30;6.20;;;;;;;24.10;45.20;100590.27;105094;1271;63702;-56
2023/07/04 06:06:54;;;;;;;9.70;6.60;;;;;;;24.14;44.63;100585.91;105802;1256;59727;-57
2023/07/04 06:09:22;;;;;;;10.50;6.80;;;;;;;24.18;45.06;100586.50;104971;1261;60752;-57
2023/07/04 06:11:50;;;;;;;11.00;6.80;;;;;;;24.21;45.20;100591.90;105054;1260;64118;-57
2023/07/04 06:14:23;;;;;;;12.80;6.10;;;;;;;24.25;44.60;100595.75;105532;1261;61435;-57
2023/07/04 06:16:50;;;;;;;10.70;6.00;;;;;;;24.30;44.71;100594.39;107866;1259;64756;-59
2023/07/04 06:19:19;;;;;;;11.70;6.60;;;;;;;24.35;45.14;100596.90;104988;1256;59690;-58
2023/07/04 06:21:47;;;;;;;9.00;6.00;;;;;;;24.41;45.19;100597.84;105678;1260;59649;-58
2023/07/04 06:24:15;;;;;;;9.30;5.20;;;;;;;24.47;44.88;100598.61;105769;1254;64122;-56
2023/07/04 06:26:43;;;;;;;9.10;5.80;;;;;;;24.54;44.40;100600.25;105602;1260;60094;-59
2023/07/04 06:29:11;;;;;;;10.90;5.90;;;;;;;24.59;43.92;100601.70;105815;1257;63751;-57
2023/07/04 06:31:41;;;;;;;13.40;5.60;;;;;;;24.65;43.48;100602.14;105355;1254;59691;-58
2023/07/04 06:34:11;;;;;;;9.80;5.70;;;;;;;24.71;44.14;100603.20;105260;1255;59758;-58
2023/07/04 06:36:40;;;;;;;7.70;5.30;;;;;;;24.77;43.44;100602.52;105154;1259;64193;-56
2023/07/04 06:39:08;;;;;;;10.50;6.00;;;;;;;24.83;42.50;100605.86;105235;1260;61362;-57
2023/07/04 06:41:35;;;;;;;8.60;5.00;;;;;;;24.87;41.69;100605.98;104990;1257;63738;-58
2023/07/04 06:44:05;;;;;;;9.00;6.00;;;;;;;24.91;41.09;100606.83;107498;1257;59667;-58
2023/07/04 06:46:32;;;;;;;9.70;5.00;;;;;;;24.98;41.47;100604.65;104817;1262;60354;-59
2023/07/04 06:49:00;;;;;;;9.10;5.40;;;;;;;25.05;41.36;100603.84;104833;1257;65780;-57
2023/07/04 06:51:30;;;;;;;7.80;5.00;;;;;;;25.12;41.34;100600.63;104954;1254;62112;-57
2023/07/04 06:54:00;;;;;;;9.30;4.80;;;;;;;25.17;41.21;100599.11;105804;1257;64313;-56
2023/07/04 06:56:28;;;;;;;7.50;4.50;;;;;;;25.22;40.36;100600.74;105068;1262;59701;-58
2023/07/04 06:58:56;;;;;;;9.20;5.70;;;;;;;25.27;40.36;100597.27;105257;1255;59566;-59
2023/07/04 07:01:27;;;;;;;10.20;5.20;;;;;;;25.31;40.49;100599.15;105092;1259;62929;-58
2023/07/04 07:03:56;;;;;;;8.70;5.30;;;;;;;25.37;40.55;100602.98;104873;1262;60091;-58
2023/07/04 07:06:25;;;;;;;9.40;5.20;;;;;;;25.44;40.60;100600.34;105053;1254;63748;-59
2023/07/04 07:08:53;;;;;;;7.20;4.40;;;;;;;25.50;40.19;100602.38;109025;1254;58359;-60
2023/07/04 07:11:21;;;;;;;9.80;4.40;;;;;;;25.56;38.34;100604.65;108919;1257;57475;-59
2023/07/04 07:13:49;;;;;;;9.50;5.50;;;;;;;25.63;38.09;100603.82;106644;1260;64095;-59
2023/07/04 07:16:20;;;;;;;9.10;4.80;;;;;;;25.71;37.82;100601.33;104813;1260;70445;-59
2023/07/04 07:18:50;;;;;;;8.30;5.00;;;;;;;25.77;37.42;100599.38;106374;1259;62478;-59
2023/07/04 07:21:20;;;;;;;9.70;4.40;;;;;;;25.83;37.43;100603.52;105646;1263;59757;-60
2023/07/04 07:23:48;;;;;;;9.30;4.80;;;;;;;25.88;37.25;100602.54;105264;1256;59541;-59
2023/07/04 07:26:22;;;;;;;10.40;5.70;;;;;;;25.93;36.09;100600.84;105402;1260;64119;-57
2023/07/04 07:28:50;;;;;;;9.30;4.80;;;;;;;25.99;35.29;100601.31;105214;1256;72389;-61
2023/07/04 07:31:25;;;;;;;8.90;5.30;;;;;;;26.04;35.32;100600.80;105245;1261;62470;-59
2023/07/04 07:34:01;;;;;;;8.80;4.90;;;;;;;26.10;35.47;100603.14;105107;1261;60552;-61
2023/07/04 07:36:31;;;;;;;9.10;4.80;;;;;;;26.16;36.05;100599.77;105129;1260;60393;-61
2023/07/04 07:38:59;;;;;;;9.40;5.60;;;;;;;26.21;35.73;100600.35;105232;1262;65372;-60
2023/07/04 07:41:28;;;;;;;8.10;5.70;;;;;;;26.25;35.54;100598.11;105205;1262;61361;-60
2023/07/04 07:43:56;;;;;;;8.10;5.30;;;;;;;26.32;35.53;100601.71;105389;1258;62604;-60
2023/07/04 07:46:24;;;;;;;10.80;5.50;;;;;;;26.37;35.58;100602.36;105335;1260;60546;-59
2023/07/04 07:48:52;;;;;;;8.50;5.80;;;;;;;26.41;35.56;100601.23;105258;1256;61730;-62
2023/07/04 07:51:19;;;;;;;9.60;6.30;;;;;;;26.45;35.47;100602.98;104962;1260;63686;-59
2023/07/04 07:53:48;;;;;;;11.20;5.80;;;;;;;26.51;35.62;100603.18;105331;1260;61373;-59
2023/07/04 07:56:18;;;;;;;9.60;6.40;;;;;;;26.56;35.31;100604.11;105520;1257;62446;-61
2023/07/04 07:58:46;;;;;;;11.40;5.80;;;;;;;26.62;35.59;100602.96;105932;1256;60468;-60
2023/07/04 08:01:14;;;;;;;8.90;6.00;;;;;;;26.66;35.63;100602.14;106081;1257;60483;-61
2023/07/04 08:03:42;;;;;;;9.30;5.40;;;;;;;26.69;35.54;100604.66;106035;1263;65524;-60
2023/07/04 08:06:28;;;;;;;9.20;5.50;;;;;;;26.73;35.43;100606.02;105330;1261;60469;-59
2023/07/04 08:08:57;;;;;;;10.10;6.20;;;;;;;26.77;35.10;100610.08;106020;1263;63786;-60
2023/07/04 08:11:26;;;;;;;9.00;5.70;;;;;;;26.80;35.01;100604.92;105069;1258;60462;-60
2023/07/04 08:13:54;;;;;;;8.50;5.70;;;;;;;26.84;35.26;100607.21;105346;1257;60381;-62
2023/07/04 08:16:27;;;;;;;8.50;5.30;;;;;;;26.88;35.35;100609.21;105538;1260;65467;-60
2023/07/04 08:18:56;;;;;;;11.90;6.10;;;;;;;26.91;34.66;100614.49;105323;1262;60654;-60
2023/07/04 08:21:24;;;;;;;8.90;5.80;;;;;;;26.96;34.13;100612.20;105274;1257;62530;-62
2023/07/04 08:23:52;;;;;;;8.80;5.80;;;;;;;26.98;33.99;100612.08;105276;1258;60530;-60
2023/07/04 08:26:21;;;;;;;8.40;5.50;;;;;;;26.99;34.28;100611.57;105251;1261;60614;-59
2023/07/04 08:28:51;;;;;;;9.30;5.90;;;;;;;27.01;34.73;100610.22;105387;1259;63718;-62
2023/07/04 08:31:19;;;;;;;9.30;6.10;;;;;;;27.04;34.66;100613.52;106086;1257;61407;-62
2023/07/04 08:33:47;;;;;;;8.80;5.60;;;;;;;27.07;34.22;100614.13;105456;1260;64203;-60
2023/07/04 08:36:15;;;;;;;8.80;5.80;;;;;;;27.09;33.65;100612.23;105677;1258;60580;-59
2023/07/04 08:38:43;;;;;;;10.80;6.10;;;;;;;27.05;33.68;100612.34;105874;1255;60555;-61
2023/07/04 08:41:23;;;;;;;8.40;5.50;;;;;;;27.05;33.68;100612.61;105189;1261;65035;-60
2023/07/04 08:43:56;;;;;;;10.80;6.10;;;;;;;27.16;33.88;100608.61;105573;1260;61402;-61
2023/07/04 08:46:24;;;;;;;10.20;6.40;;;;;;;27.28;33.79;100608.04;105536;1259;62497;-61
2023/07/04 08:48:52;;;;;;;9.10;5.90;;;;;;;27.34;33.11;100606.42;105494;1259;60584;-60
2023/07/04 08:51:33;;;;;;;8.50;5.50;;;;;;;27.37;32.96;100606.88;105172;1263;60367;-60
2023/07/04 08:54:01;;;;;;;10.90;5.80;;;;;;;27.38;32.41;100604.16;105169;1256;63721;-59
2023/07/04 08:56:34;;;;;;;8.80;5.70;;;;;;;27.44;32.47;100600.09;105069;1260;61329;-59
2023/07/04 08:59:23;;;;;;;11.60;6.40;;;;;;;27.49;32.53;100598.33;105199;1261;62540;-61
2023/07/04 09:02:19;;;;;;;7.70;4.80;;;;;;;27.52;32.75;100601.73;105244;1266;60570;-62
2023/07/04 09:05:12;;;;;;;9.00;5.50;;;;;;;27.56;32.82;100596.92;105456;1262;60446;-60
2023/07/04 09:08:04;;;;;;;9.50;5.60;;;;;;;27.60;32.46;100591.55;105053;1257;64939;-60
2023/07/04 09:10:38;;;;;;;9.10;5.90;;;;;;;27.64;32.85;100589.95;105277;1263;60455;-60
2023/07/04 09:13:08;;;;;;;12.50;5.40;;;;;;;27.69;33.10;100589.83;105195;1261;63727;-59
2023/07/04 09:15:43;;;;;;;10.80;5.70;;;;;;;27.77;33.05;100590.13;105308;1258;60431;-58
2023/07/04 09:18:34;;;;;;;;;;;;;;;27.86;32.90;100584.13;105220;1260;60660;-58
2023/07/04 09:21:14;;;;;;;9.00;5.80;;;;;;;27.93;31.69;100583.65;105239;1262;64970;-59
2023/07/04 09:23:42;;;;;;;8.20;5.10;;;;;;;27.99;30.79;100577.34;105437;1257;61328;-60
2023/07/04 09:26:10;;;;;;;9.30;5.30;;;;;;;28.01;30.28;100575.05;105387;1254;63745;-59
2023/07/04 09:28:41;;;;;;;8.50;5.50;;;;;;;28.04;30.28;100574.59;105234;1257;60456;-58
2023/07/04 09:31:15;;;;;;;8.50;5.10;;;;;;;28.10;31.68;100573.93;105396;1256;60643;-59
2023/07/04 09:33:43;;;;;;;7.20;5.10;;;;;;;28.20;31.37;100575.17;105282;1260;63920;-60
2023/07/04 09:36:10;;;;;;;12.10;5.80;;;;;;;28.29;30.98;100573.92;105262;1258;61903;-60
2023/07/04 09:38:55;;;;;;;8.50;5.80;;;;;;;28.39;30.75;100569.17;105361;1260;63678;-60
2023/07/04 09:41:27;;;;;;;10.80;6.00;;;;;;;28.49;30.87;100567.77;105238;1263;60604;-58
2023/07/04 09:43:56;;;;;;;8.80;5.20;;;;;;;28.58;30.88;100569.98;105315;1262;61033;-58
2023/07/04 09:46:24;;;;;;;7.30;4.70;;;;;;;28.63;30.56;100566.16;105280;1260;64935;-60
2023/07/04 09:48:53;;;;;;;7.90;4.60;;;;;;;28.69;30.12;100568.94;105099;1254;61440;-58
2023/07/04 09:51:26;;;;;;;7.10;4.70;;;;;;;28.71;29.61;100568.66;105297;1261;62535;-60
2023/07/04 09:54:14;;;;;;;8.80;4.90;;;;;;;28.72;29.49;100569.05;105087;1262;60571;-59
2023/07/04 09:56:42;;;;;;;8.50;5.20;;;;;;;28.75;29.55;100568.30;105329;1257;62089;-60
2023/07/04 09:59:13;;;;;;;6.90;4.70;;;;;;;28.83;29.52;100567.48;105201;1259;64960;-61
2023/07/04 10:01:42;;;;;;;7.00;4.30;;;;;;;28.93;29.60;100570.13;104828;1263;60707;-60
2023/07/04 10:04:11;;;;;;;7.60;4.90;;;;;;;29.02;29.70;100574.84;105832;1258;62578;-60
2023/07/04 10:06:39;;;;;;;8.50;4.80;;;;;;;29.06;28.68;100574.92;106184;1260;60592;-61
2023/07/04 10:09:19;;;;;;;8.00;5.00;;;;;;;29.08;29.05;100573.95;105278;1258;61196;-59
2023/07/04 10:11:48;;;;;;;11.40;4.90;;;;;;;29.14;28.36;100572.09;105934;1254;63619;-59
2023/07/04 10:14:16;;;;;;;6.90;4.40;;;;;;;29.17;27.99;100571.79;105763;1260;61342;-61
2023/07/04 10:16:50;;;;;;;8.20;4.50;;;;;;;29.21;28.05;100570.09;106044;1260;62476;-60
2023/07/04 10:19:20;;;;;;;8.20;5.20;;;;;;;29.27;28.51;100567.81;105718;1260;60447;-59
2023/07/04 10:21:51;;;;;;;7.70;4.70;;;;;;;29.34;28.38;100570.11;105069;1257;60425;-60
2023/07/04 10:24:20;;;;;;;7.30;4.50;;;;;;;29.38;27.91;100569.17;108720;1253;63836;-60
2023/07/04 10:26:54;;;;;;;8.40;5.10;;;;;;;29.40;27.50;100568.49;105352;1260;61614;-61
2023/07/04 10:29:31;;;;;;;7.40;4.40;;;;;;;29.43;27.83;100568.44;105485;1259;63766;-58
2023/07/04 10:32:02;;;;;;;7.00;4.40;;;;;;;29.48;27.72;100570.16;106774;1257;60559;-59
2023/07/04 10:34:30;;;;;;;9.20;4.60;;;;;;;29.50;27.67;100567.59;105450;1254;60555;-59
2023/07/04 10:36:58;;;;;;;9.40;4.90;;;;;;;29.51;27.61;100566.30;105298;1262;65041;-59
2023/07/04 10:39:25;;;;;;;8.40;4.90;;;;;;;29.51;27.43;100565.54;105127;1255;61435;-63
2023/07/04 10:42:27;;;;;;;8.10;5.10;;;;;;;29.52;27.74;100566.27;105016;1264;63857;-61
2023/07/04 10:44:55;;;;;;;6.90;4.20;;;;;;;29.56;27.45;100568.67;105339;1258;60491;-61
2023/07/04 10:47:27;;;;;;;7.60;4.80;;;;;;;29.60;27.29;100566.89;105648;1257;60456;-61
2023/07/04 10:49:58;;;;;;;8.70;5.60;;;;;;;29.66;27.10;100566.02;105348;1260;63820;-61
2023/07/04 10:52:33;;;;;;;7.10;4.50;;;;;;;29.69;26.79;100563.73;105069;1254;61843;-60
2023/07/04 10:55:01;;;;;;;7.00;4.70;;;;;;;29.70;27.14;100563.42;106109;1258;62450;-60
2023/07/04 10:57:34;;;;;;;9.30;5.00;;;;;;;29.74;27.15;100561.91;105945;1258;60596;-61
2023/07/04 11:00:14;;;;;;;8.90;4.70;;;;;;;29.78;26.56;100557.66;105347;1260;60585;-59
2023/07/04 11:02:48;;;;;;;7.70;4.80;;;;;;;29.79;26.01;100553.79;105220;1262;65022;-59
2023/07/04 11:05:27;;;;;;;7.50;4.70;;;;;;;29.83;26.36;100552.27;105189;1261;61362;-60
2023/07/04 11:07:54;;;;;;;7.40;4.70;;;;;;;29.91;26.67;100550.92;105085;1254;63712;-60
2023/07/04 11:10:23;;;;;;;6.80;4.40;;;;;;;29.96;26.47;100552.54;105129;1257;60459;-63
2023/07/04 11:12:54;;;;;;;7.20;4.50;;;;;;;30.01;26.56;100552.45;105182;1260;60600;-59
2023/07/04 11:15:25;;;;;;;6.30;4.00;;;;;;;30.08;26.26;100551.58;106806;1254;64961;-59
2023/07/04 11:17:54;;;;;;;7.80;4.20;;;;;;;30.14;26.51;100551.34;109017;1254;61372;-60
2023/07/04 11:20:25;;;;;;;7.20;4.50;;;;;;;30.23;26.86;100551.34;108891;1254;63766;-61
2023/07/04 11:22:57;;;;;;;7.60;4.60;;;;;;;30.32;26.34;100554.25;108809;1257;60620;-61
2023/07/04 11:25:36;;;;;;;7.90;4.60;;;;;;;30.39;26.55;100552.58;108965;1255;58536;-59
2023/07/04 11:28:27;;;;;;;6.70;4.40;;;;;;;30.50;26.80;100551.48;108891;1257;65059;-59
2023/07/04 11:31:25;;;;;;;7.00;4.50;;;;;;;30.64;26.19;100551.83;108906;1256;60093;-59
2023/07/04 11:33:52;;;;;;;8.20;4.60;;;;;;;30.78;25.77;100554.92;105111;1258;62538;-57
2023/07/04 11:36:28;;;;;;;8.00;4.60;;;;;;;30.83;25.09;100554.27;105240;1257;60493;-59
2023/07/04 11:39:03;;;;;;;9.90;4.60;;;;;;;30.86;25.64;100552.67;105162;1257;60447;-59
2023/07/04 11:41:33;;;;;;;6.20;4.00;;;;;;;30.92;26.15;100550.86;105352;1257;72988;-58